createdAt,value
2018-03-21T00:00:23.633Z,68.10
2018-03-21T00:01:23.490Z,73.10
2018-03-21T00:02:23.437Z,71.30
2018-03-21T00:03:23.421Z,69.00
2018-03-21T00:04:23.333Z,68.80
2018-03-21T00:05:23.285Z,70.30
2018-03-21T00:06:23.261Z,67.40
2018-03-21T00:07:23.171Z,63.00
2018-03-21T00:08:23.125Z,67.70
2018-03-21T00:09:23.105Z,67.10
2018-03-21T00:10:23.016Z,81.60
2018-03-21T00:11:22.964Z,63.30
2018-03-21T00:12:22.945Z,61.30
2018-03-21T00:13:22.862Z,66.30
2018-03-21T00:14:22.805Z,80.60
2018-03-21T00:15:22.786Z,68.60
2018-03-21T00:16:22.701Z,64.20
2018-03-21T00:17:22.653Z,65.80
2018-03-21T00:18:22.629Z,68.20
2018-03-21T00:19:22.543Z,64.90
2018-03-21T00:20:22.495Z,63.00
2018-03-21T00:21:22.471Z,74.40
2018-03-21T00:22:22.387Z,85.20
2018-03-21T00:23:22.337Z,64.40
2018-03-21T00:24:22.281Z,62.20
2018-03-21T00:25:22.226Z,62.90
2018-03-21T00:26:22.179Z,68.20
2018-03-21T00:27:22.121Z,61.20
2018-03-21T00:28:22.107Z,65.90
2018-03-21T00:29:22.018Z,62.20
2018-03-21T00:30:22.067Z,62.40
2018-03-21T00:31:21.945Z,63.60
2018-03-21T00:32:21.861Z,72.70
2018-03-21T00:33:21.811Z,59.70
2018-03-21T00:34:21.753Z,84.30
2018-03-21T00:35:21.706Z,60.20
2018-03-21T00:36:21.681Z,58.70
2018-03-21T00:37:21.596Z,57.80
2018-03-21T00:38:21.545Z,58.00
2018-03-21T00:39:21.526Z,59.30
2018-03-21T00:40:21.443Z,57.60
2018-03-21T00:41:21.387Z,55.20
2018-03-21T00:42:21.367Z,60.00
2018-03-21T00:43:21.287Z,61.60
2018-03-21T00:44:21.223Z,64.60
2018-03-21T00:45:21.211Z,55.00
2018-03-21T00:46:21.121Z,58.20
2018-03-21T00:47:21.073Z,57.50
2018-03-21T00:48:21.058Z,61.20
2018-03-21T00:49:20.963Z,58.50
2018-03-21T00:50:20.911Z,61.00
2018-03-21T00:51:20.892Z,58.00
2018-03-21T00:52:20.804Z,60.90
2018-03-21T00:53:20.753Z,56.60
2018-03-21T00:54:20.736Z,57.60
2018-03-21T00:55:20.650Z,60.10
2018-03-21T00:56:20.599Z,56.70
2018-03-21T00:57:20.578Z,59.80
2018-03-21T00:58:20.490Z,59.90
2018-03-21T00:59:20.438Z,58.20
2018-03-21T01:00:20.438Z,60.60
2018-03-21T01:01:20.334Z,56.90
2018-03-21T01:02:20.281Z,60.70
2018-03-21T01:03:20.261Z,58.60
2018-03-21T01:04:20.180Z,59.40
2018-03-21T01:05:20.122Z,60.50
2018-03-21T01:06:20.100Z,62.40
2018-03-21T01:07:20.018Z,60.80
2018-03-21T01:08:19.975Z,64.80
2018-03-21T01:09:19.944Z,70.10
2018-03-21T01:10:19.858Z,58.60
2018-03-21T01:11:19.807Z,59.90
2018-03-21T01:12:19.786Z,89.90
2018-03-21T01:13:19.701Z,62.30
2018-03-21T01:14:19.648Z,60.00
2018-03-21T01:15:19.630Z,62.60
2018-03-21T01:16:19.546Z,63.40
2018-03-21T01:17:19.489Z,66.50
2018-03-21T01:18:19.475Z,61.00
2018-03-21T01:19:19.384Z,62.90
2018-03-21T01:20:19.334Z,65.20
2018-03-21T01:21:19.321Z,63.00
2018-03-21T01:22:19.227Z,63.30
2018-03-21T01:23:19.176Z,59.90
2018-03-21T01:24:19.156Z,59.00
2018-03-21T01:25:19.068Z,60.20
2018-03-21T01:26:19.014Z,57.60
2018-03-21T01:27:18.999Z,72.70
2018-03-21T01:28:18.912Z,63.60
2018-03-21T01:29:18.862Z,60.60
2018-03-21T01:30:18.840Z,60.10
2018-03-21T01:31:18.758Z,58.30
2018-03-21T01:32:18.702Z,62.00
2018-03-21T01:33:18.683Z,63.00
2018-03-21T01:34:18.596Z,60.00
2018-03-21T01:35:18.546Z,60.90
2018-03-21T01:36:18.522Z,60.60
2018-03-21T01:37:18.439Z,74.10
2018-03-21T01:38:18.386Z,60.20
2018-03-21T01:39:18.367Z,62.40
2018-03-21T01:40:18.281Z,60.50
2018-03-21T01:41:18.229Z,69.70
2018-03-21T01:42:18.201Z,58.50
2018-03-21T01:43:18.127Z,58.90
2018-03-21T01:44:18.068Z,60.20
2018-03-21T01:45:18.052Z,57.00
2018-03-21T01:46:17.964Z,53.00
2018-03-21T01:47:17.912Z,58.30
2018-03-21T01:48:17.898Z,52.40
2018-03-21T01:49:17.818Z,50.30
2018-03-21T01:50:17.749Z,55.00
2018-03-21T01:51:17.734Z,53.40
2018-03-21T01:52:17.649Z,52.40
2018-03-21T01:53:17.595Z,55.60
2018-03-21T01:54:17.576Z,54.90
2018-03-21T01:55:17.490Z,52.90
2018-03-21T01:56:17.438Z,52.60
2018-03-21T01:57:17.419Z,60.60
2018-03-21T01:58:17.331Z,59.20
2018-03-21T01:59:17.279Z,52.00
2018-03-21T02:00:17.260Z,52.90
2018-03-21T02:01:17.176Z,51.70
2018-03-21T02:02:17.122Z,53.50
2018-03-21T02:03:17.103Z,57.70
2018-03-21T02:04:17.014Z,51.90
2018-03-21T02:05:16.967Z,46.90
2018-03-21T02:06:16.940Z,52.80
2018-03-21T02:07:16.857Z,48.60
2018-03-21T02:08:16.807Z,52.30
2018-03-21T02:09:16.804Z,57.70
2018-03-21T02:10:16.696Z,50.70
2018-03-21T02:11:16.647Z,47.70
2018-03-21T02:12:16.628Z,46.00
2018-03-21T02:13:16.540Z,46.90
2018-03-21T02:14:16.487Z,48.10
2018-03-21T02:15:16.471Z,45.10
2018-03-21T02:16:16.391Z,47.80
2018-03-21T02:17:16.330Z,49.20
2018-03-21T02:18:16.313Z,46.70
2018-03-21T02:19:16.226Z,50.00
2018-03-21T02:20:16.172Z,45.20
2018-03-21T02:21:16.153Z,41.50
2018-03-21T02:22:16.071Z,48.50
2018-03-21T02:23:16.013Z,44.30
2018-03-21T02:24:15.956Z,45.20
2018-03-21T02:25:15.907Z,45.80
2018-03-21T02:26:15.890Z,46.60
2018-03-21T02:27:15.799Z,43.70
2018-03-21T02:28:15.748Z,44.40
2018-03-21T02:29:15.695Z,54.00
2018-03-21T02:30:15.642Z,44.20
2018-03-21T02:31:15.624Z,43.60
2018-03-21T02:32:15.535Z,43.50
2018-03-21T02:33:15.484Z,43.70
2018-03-21T02:34:15.435Z,42.70
2018-03-21T02:35:15.382Z,42.90
2018-03-21T02:36:15.359Z,43.30
2018-03-21T02:37:15.294Z,46.70
2018-03-21T02:38:15.220Z,44.20
2018-03-21T02:39:15.166Z,43.30
2018-03-21T02:40:15.115Z,43.90
2018-03-21T02:41:15.103Z,42.10
2018-03-21T02:42:15.006Z,46.10
2018-03-21T02:43:15.061Z,45.60
2018-03-21T02:44:14.900Z,45.00
2018-03-21T02:45:14.850Z,42.70
2018-03-21T02:46:14.795Z,38.90
2018-03-21T02:47:14.749Z,41.90
2018-03-21T02:48:14.724Z,44.20
2018-03-21T02:49:14.637Z,43.20
2018-03-21T02:50:14.581Z,44.70
2018-03-21T02:51:14.528Z,45.30
2018-03-21T02:52:14.479Z,47.40
2018-03-21T02:53:14.458Z,43.70
2018-03-21T02:54:14.376Z,39.40
2018-03-21T02:55:14.320Z,40.10
2018-03-21T02:56:14.266Z,42.10
2018-03-21T02:57:14.212Z,42.40
2018-03-21T02:58:14.198Z,38.10
2018-03-21T02:59:14.109Z,42.70
2018-03-21T03:00:14.064Z,41.10
2018-03-21T03:01:14.005Z,41.50
2018-03-21T03:02:13.948Z,41.20
2018-03-21T03:03:13.935Z,40.60
2018-03-21T03:04:13.842Z,40.20
2018-03-21T03:05:13.796Z,40.00
2018-03-21T03:06:13.740Z,44.10
2018-03-21T03:07:13.685Z,37.30
2018-03-21T03:08:13.662Z,43.60
2018-03-21T03:09:13.578Z,38.40
2018-03-21T03:10:13.524Z,41.10
2018-03-21T03:11:13.470Z,39.80
2018-03-21T03:12:13.420Z,42.50
2018-03-21T03:13:13.403Z,41.70
2018-03-21T03:14:13.311Z,38.10
2018-03-21T03:15:13.261Z,37.30
2018-03-21T03:16:13.212Z,39.00
2018-03-21T03:17:13.154Z,42.80
2018-03-21T03:18:13.136Z,39.10
2018-03-21T03:19:13.048Z,37.40
2018-03-21T03:20:12.996Z,38.90
2018-03-21T03:21:12.948Z,37.20
2018-03-21T03:22:12.889Z,36.20
2018-03-21T03:23:12.867Z,40.80
2018-03-21T03:24:12.784Z,34.20
2018-03-21T03:25:12.730Z,39.60
2018-03-21T03:26:12.681Z,37.80
2018-03-21T03:27:12.624Z,38.20
2018-03-21T03:28:12.609Z,35.90
2018-03-21T03:29:12.519Z,36.40
2018-03-21T03:30:12.465Z,34.00
2018-03-21T03:31:12.415Z,36.40
2018-03-21T03:32:12.359Z,36.60
2018-03-21T03:33:12.359Z,37.20
2018-03-21T03:34:12.252Z,37.00
2018-03-21T03:35:12.199Z,33.50
2018-03-21T03:36:12.149Z,36.40
2018-03-21T03:37:12.095Z,34.60
2018-03-21T03:38:12.084Z,35.80
2018-03-21T03:39:12.059Z,32.90
2018-03-21T03:40:11.936Z,34.10
2018-03-21T03:41:11.884Z,35.00
2018-03-21T03:42:11.828Z,33.70
2018-03-21T03:43:11.813Z,29.50
2018-03-21T03:44:11.725Z,29.50
2018-03-21T03:45:11.671Z,29.80
2018-03-21T03:46:11.618Z,33.60
2018-03-21T03:47:11.564Z,29.50
2018-03-21T03:48:11.545Z,30.30
2018-03-21T03:49:11.458Z,31.00
2018-03-21T03:50:11.406Z,30.90
2018-03-21T03:51:11.352Z,31.30
2018-03-21T03:52:11.300Z,28.80
2018-03-21T03:53:11.281Z,30.70
2018-03-21T03:54:11.192Z,28.50
2018-03-21T03:55:11.138Z,30.70
2018-03-21T03:56:11.086Z,29.40
2018-03-21T03:57:11.040Z,32.10
2018-03-21T03:58:11.017Z,28.80
2018-03-21T03:59:10.927Z,29.30
2018-03-21T04:00:10.878Z,27.50
2018-03-21T04:01:10.823Z,28.40
2018-03-21T04:02:10.765Z,29.20
2018-03-21T04:03:10.747Z,29.00
2018-03-21T04:04:10.665Z,29.20
2018-03-21T04:05:10.611Z,25.40
2018-03-21T04:06:10.555Z,24.00
2018-03-21T04:07:10.504Z,28.90
2018-03-21T04:08:10.487Z,25.90
2018-03-21T04:09:10.400Z,28.60
2018-03-21T04:10:10.342Z,30.20
2018-03-21T04:11:10.290Z,27.80
2018-03-21T04:12:10.236Z,26.60
2018-03-21T04:13:10.218Z,25.00
2018-03-21T04:14:10.129Z,26.40
2018-03-21T04:15:10.146Z,30.80
2018-03-21T04:16:10.058Z,25.10
2018-03-21T04:17:09.971Z,26.80
2018-03-21T04:18:09.920Z,23.50
2018-03-21T04:19:09.865Z,27.60
2018-03-21T04:20:09.813Z,25.40
2018-03-21T04:21:09.791Z,24.60
2018-03-21T04:22:09.704Z,24.00
2018-03-21T04:23:09.702Z,25.60
2018-03-21T04:24:09.611Z,23.90
2018-03-21T04:25:09.547Z,23.40
2018-03-21T04:26:09.530Z,23.00
2018-03-21T04:27:09.441Z,23.90
2018-03-21T04:28:09.386Z,29.10
2018-03-21T04:29:09.331Z,25.20
2018-03-21T04:30:09.280Z,27.30
2018-03-21T04:31:09.260Z,23.00
2018-03-21T04:32:09.172Z,23.70
2018-03-21T04:33:09.128Z,27.30
2018-03-21T04:34:09.066Z,25.70
2018-03-21T04:35:09.012Z,23.70
2018-03-21T04:36:08.994Z,34.80
2018-03-21T04:37:08.910Z,23.10
2018-03-21T04:38:08.852Z,24.10
2018-03-21T04:39:08.799Z,23.40
2018-03-21T04:40:08.747Z,25.80
2018-03-21T04:41:08.728Z,24.00
2018-03-21T04:42:08.641Z,22.90
2018-03-21T04:43:08.590Z,25.10
2018-03-21T04:44:08.534Z,28.10
2018-03-21T04:45:08.505Z,21.20
2018-03-21T04:46:08.464Z,25.50
2018-03-21T04:47:08.377Z,24.80
2018-03-21T04:48:08.318Z,23.50
2018-03-21T04:49:08.265Z,28.10
2018-03-21T04:50:08.213Z,23.10
2018-03-21T04:51:08.189Z,25.00
2018-03-21T04:52:08.107Z,25.50
2018-03-21T04:53:08.054Z,23.70
2018-03-21T04:54:08.000Z,24.50
2018-03-21T04:55:07.958Z,24.80
2018-03-21T04:56:07.926Z,23.00
2018-03-21T04:57:07.841Z,23.80
2018-03-21T04:58:07.785Z,27.00
2018-03-21T04:59:07.733Z,31.70
2018-03-21T05:00:07.681Z,26.00
2018-03-21T05:01:07.661Z,24.30
2018-03-21T05:02:07.573Z,30.70
2018-03-21T05:03:07.519Z,24.90
2018-03-21T05:04:07.468Z,26.30
2018-03-21T05:05:07.415Z,27.80
2018-03-21T05:06:07.396Z,23.70
2018-03-21T05:07:07.305Z,28.80
2018-03-21T05:08:07.255Z,27.50
2018-03-21T05:09:07.202Z,29.30
2018-03-21T05:10:07.145Z,27.40
2018-03-21T05:11:07.132Z,24.80
2018-03-21T05:12:07.041Z,27.30
2018-03-21T05:13:06.986Z,27.80
2018-03-21T05:14:06.933Z,25.30
2018-03-21T05:15:06.881Z,25.90
2018-03-21T05:16:06.860Z,29.50
2018-03-21T05:17:06.773Z,27.00
2018-03-21T05:18:06.718Z,26.60
2018-03-21T05:19:06.668Z,22.90
2018-03-21T05:20:06.612Z,26.10
2018-03-21T05:21:06.592Z,26.50
2018-03-21T05:22:06.505Z,24.80
2018-03-21T05:23:06.453Z,24.60
2018-03-21T05:24:06.400Z,26.90
2018-03-21T05:25:06.344Z,22.20
2018-03-21T05:26:06.329Z,21.00
2018-03-21T05:27:06.240Z,28.80
2018-03-21T05:28:06.184Z,23.40
2018-03-21T05:29:06.132Z,24.60
2018-03-21T05:30:06.078Z,23.80
2018-03-21T05:31:06.058Z,25.20
2018-03-21T05:32:05.972Z,22.50
2018-03-21T05:33:05.921Z,50.70
2018-03-21T05:34:05.864Z,21.70
2018-03-21T05:35:05.811Z,22.80
2018-03-21T05:36:05.791Z,22.60
2018-03-21T05:37:05.707Z,22.40
2018-03-21T05:38:05.651Z,26.00
2018-03-21T05:39:05.594Z,23.80
2018-03-21T05:40:05.545Z,22.70
2018-03-21T05:41:05.526Z,19.50
2018-03-21T05:42:05.436Z,25.60
2018-03-21T05:43:05.379Z,21.40
2018-03-21T05:44:05.333Z,20.50
2018-03-21T05:45:05.281Z,22.80
2018-03-21T05:46:05.258Z,23.10
2018-03-21T05:47:05.179Z,23.90
2018-03-21T05:48:05.131Z,23.50
2018-03-21T05:49:05.067Z,19.70
2018-03-21T05:50:05.011Z,22.10
2018-03-21T05:51:04.985Z,24.30
2018-03-21T05:52:04.904Z,23.10
2018-03-21T05:53:04.852Z,22.10
2018-03-21T05:54:04.798Z,20.10
2018-03-21T05:55:04.751Z,22.40
2018-03-21T05:56:04.726Z,21.30
2018-03-21T05:57:04.648Z,23.50
2018-03-21T05:58:04.584Z,21.00
2018-03-21T05:59:04.525Z,21.80
2018-03-21T06:00:04.478Z,22.50
2018-03-21T06:01:04.464Z,20.70
2018-03-21T06:02:04.372Z,23.50
2018-03-21T06:03:04.320Z,23.20
2018-03-21T06:04:04.264Z,21.00
2018-03-21T06:05:04.214Z,22.50
2018-03-21T06:06:04.158Z,22.20
2018-03-21T06:07:04.104Z,23.80
2018-03-21T06:08:04.052Z,24.10
2018-03-21T06:09:03.997Z,23.20
2018-03-21T06:10:03.943Z,26.80
2018-03-21T06:11:03.894Z,24.20
2018-03-21T06:12:03.837Z,22.30
2018-03-21T06:13:03.784Z,26.70
2018-03-21T06:14:03.731Z,32.80
2018-03-21T06:15:03.683Z,23.80
2018-03-21T06:16:03.640Z,25.60
2018-03-21T06:17:03.574Z,26.00
2018-03-21T06:18:03.608Z,25.20
2018-03-21T06:19:03.464Z,25.50
2018-03-21T06:20:03.422Z,23.90
2018-03-21T06:21:03.354Z,26.70
2018-03-21T06:22:03.304Z,25.10
2018-03-21T06:23:03.254Z,24.20
2018-03-21T06:24:03.200Z,24.00
2018-03-21T06:25:03.150Z,23.90
2018-03-21T06:26:03.100Z,22.30
2018-03-21T06:27:03.045Z,25.70
2018-03-21T06:28:02.987Z,24.20
2018-03-21T06:29:02.935Z,26.00
2018-03-21T06:30:02.956Z,25.40
2018-03-21T06:31:02.828Z,24.10
2018-03-21T06:32:02.775Z,25.60
2018-03-21T06:33:02.757Z,23.10
2018-03-21T06:34:02.669Z,26.50
2018-03-21T06:35:02.615Z,24.60
2018-03-21T06:36:02.566Z,20.70
2018-03-21T06:37:02.514Z,23.40
2018-03-21T06:38:02.517Z,20.50
2018-03-21T06:39:02.407Z,21.10
2018-03-21T06:40:02.361Z,23.80
2018-03-21T06:41:02.301Z,22.60
2018-03-21T06:42:02.247Z,21.60
2018-03-21T06:43:02.201Z,23.70
2018-03-21T06:44:02.233Z,25.00
2018-03-21T06:45:02.101Z,20.10
2018-03-21T06:46:02.130Z,19.90
2018-03-21T06:47:01.980Z,21.30
2018-03-21T06:48:01.930Z,20.50
2018-03-21T06:49:01.894Z,20.70
2018-03-21T06:50:01.829Z,19.80
2018-03-21T06:51:01.995Z,21.80
2018-03-21T06:52:01.723Z,21.70
2018-03-21T06:53:01.672Z,23.30
2018-03-21T06:54:01.620Z,19.30
2018-03-21T06:55:01.572Z,21.00
2018-03-21T06:56:01.532Z,19.40
2018-03-21T06:57:01.463Z,19.80
2018-03-21T06:58:01.410Z,23.50
2018-03-21T06:59:01.366Z,20.50
2018-03-21T07:00:01.330Z,18.90
2018-03-21T07:01:01.255Z,21.20
2018-03-21T07:02:01.209Z,21.00
2018-03-21T07:03:01.179Z,22.40
2018-03-21T07:04:01.143Z,19.20
2018-03-21T07:05:01.065Z,23.00
2018-03-21T07:06:01.069Z,22.60
2018-03-21T07:07:00.964Z,20.70
2018-03-21T07:08:00.894Z,19.80
2018-03-21T07:09:00.854Z,22.20
2018-03-21T07:10:00.840Z,23.90
2018-03-21T07:11:00.741Z,21.10
2018-03-21T07:12:00.702Z,22.60
2018-03-21T07:13:00.638Z,21.60
2018-03-21T07:14:00.586Z,22.00
2018-03-21T07:15:00.553Z,23.60
2018-03-21T07:16:00.499Z,23.50
2018-03-21T07:17:00.439Z,20.20
2018-03-21T07:18:00.385Z,20.70
2018-03-21T07:19:00.336Z,21.70
2018-03-21T07:20:00.288Z,21.80
2018-03-21T07:21:00.266Z,22.20
2018-03-21T07:22:00.191Z,19.70
2018-03-21T07:23:00.155Z,20.50
2018-03-21T07:24:00.076Z,21.30
2018-03-21T07:25:00.029Z,22.20
2018-03-21T07:26:00.172Z,20.80
2018-03-21T07:26:59.948Z,21.20
2018-03-21T07:27:59.916Z,21.40
2018-03-21T07:28:59.830Z,19.80
2018-03-21T07:29:59.782Z,23.40
2018-03-21T07:30:59.723Z,24.20
2018-03-21T07:31:59.674Z,21.90
2018-03-21T07:32:59.619Z,22.20
2018-03-21T07:33:59.592Z,20.60
2018-03-21T07:34:59.531Z,21.20
2018-03-21T07:35:59.473Z,18.40
2018-03-21T07:36:59.436Z,21.90
2018-03-21T07:37:59.370Z,23.10
2018-03-21T07:38:59.342Z,19.80
2018-03-21T07:39:59.320Z,22.80
2018-03-21T07:40:59.225Z,23.90
2018-03-21T07:41:59.179Z,21.30
2018-03-21T07:42:59.115Z,21.20
2018-03-21T07:43:59.059Z,21.60
2018-03-21T07:44:59.011Z,23.50
2018-03-21T07:45:58.955Z,21.20
2018-03-21T07:46:58.910Z,25.20
2018-03-21T07:47:58.859Z,23.80
2018-03-21T07:48:58.806Z,22.50
2018-03-21T07:49:58.830Z,25.60
2018-03-21T07:50:58.743Z,25.00
2018-03-21T07:51:58.701Z,26.10
2018-03-21T07:52:58.673Z,22.30
2018-03-21T07:53:58.595Z,22.70
2018-03-21T07:54:58.613Z,23.30
2018-03-21T07:55:58.493Z,22.80
2018-03-21T07:56:58.478Z,22.30
2018-03-21T07:57:58.380Z,21.20
2018-03-21T07:58:58.349Z,19.60
2018-03-21T07:59:58.271Z,21.40
2018-03-21T08:00:58.223Z,20.50
2018-03-21T08:01:58.152Z,21.50
2018-03-21T08:02:58.081Z,21.80
2018-03-21T08:03:58.041Z,19.70
2018-03-21T08:04:57.992Z,20.80
2018-03-21T08:05:57.942Z,19.10
2018-03-21T08:06:57.881Z,18.50
2018-03-21T08:07:57.839Z,20.40
2018-03-21T08:08:57.784Z,18.80
2018-03-21T08:09:57.824Z,19.30
2018-03-21T08:10:57.682Z,22.60
2018-03-21T08:11:57.628Z,19.60
2018-03-21T08:12:57.579Z,18.10
2018-03-21T08:13:57.575Z,21.00
2018-03-21T08:14:57.479Z,18.70
2018-03-21T08:15:57.465Z,19.90
2018-03-21T08:16:57.431Z,22.80
2018-03-21T08:17:57.324Z,19.70
2018-03-21T08:18:57.579Z,17.70
2018-03-21T08:19:57.307Z,21.30
2018-03-21T08:20:57.179Z,19.10
2018-03-21T08:21:57.150Z,16.20
2018-03-21T08:22:57.089Z,17.90
2018-03-21T08:23:57.025Z,18.50
2018-03-21T08:24:56.971Z,16.90
2018-03-21T08:25:57.052Z,18.90
2018-03-21T08:26:56.872Z,16.90
2018-03-21T08:27:56.821Z,15.00
2018-03-21T08:28:56.768Z,15.70
2018-03-21T08:29:56.718Z,12.40
2018-03-21T08:30:56.659Z,15.00
2018-03-21T08:31:56.770Z,14.00
2018-03-21T08:32:56.582Z,14.00
2018-03-21T08:33:56.531Z,13.10
2018-03-21T08:34:56.481Z,10.80
2018-03-21T08:35:56.493Z,12.20
2018-03-21T08:36:56.408Z,11.20
2018-03-21T08:37:56.343Z,13.60
2018-03-21T08:38:56.357Z,12.80
2018-03-21T08:39:56.230Z,12.20
2018-03-21T08:40:56.157Z,11.90
2018-03-21T08:41:56.885Z,11.20
2018-03-21T08:42:56.069Z,12.90
2018-03-21T08:43:56.426Z,11.90
2018-03-21T08:44:56.442Z,12.50
2018-03-21T08:45:55.901Z,9.30
2018-03-21T08:46:55.858Z,13.00
2018-03-21T08:47:55.824Z,10.30
2018-03-21T08:48:56.023Z,14.80
2018-03-21T08:49:55.714Z,13.00
2018-03-21T08:50:55.652Z,13.10
2018-03-21T08:51:55.604Z,12.10
2018-03-21T08:52:55.559Z,14.60
2018-03-21T08:53:55.512Z,13.50
2018-03-21T08:54:55.451Z,12.90
2018-03-21T08:55:55.403Z,15.30
2018-03-21T08:56:55.357Z,11.80
2018-03-21T08:57:55.301Z,11.90
2018-03-21T08:58:55.834Z,11.90
2018-03-21T08:59:55.206Z,12.10
2018-03-21T09:00:55.173Z,10.70
2018-03-21T09:01:55.112Z,12.70
2018-03-21T09:02:55.058Z,12.20
2018-03-21T09:03:55.010Z,12.30
2018-03-21T09:04:55.610Z,12.90
2018-03-21T09:05:54.912Z,11.70
2018-03-21T09:06:54.857Z,12.70
2018-03-21T09:07:54.831Z,12.10
2018-03-21T09:08:54.775Z,13.00
2018-03-21T09:09:54.712Z,14.50
2018-03-21T09:10:54.660Z,14.20
2018-03-21T09:11:54.605Z,11.90
2018-03-21T09:12:54.556Z,14.60
2018-03-21T09:13:54.506Z,14.40
2018-03-21T09:14:54.461Z,11.70
2018-03-21T09:15:54.456Z,13.10
2018-03-21T09:16:54.355Z,11.00
2018-03-21T09:17:54.361Z,11.90
2018-03-21T09:18:54.266Z,11.50
2018-03-21T09:19:54.238Z,10.90
2018-03-21T09:20:54.186Z,11.70
2018-03-21T09:21:54.107Z,12.40
2018-03-21T09:22:54.053Z,11.00
2018-03-21T09:23:54.008Z,10.50
2018-03-21T09:24:53.959Z,10.60
2018-03-21T09:25:53.942Z,12.30
2018-03-21T09:26:53.857Z,12.90
2018-03-21T09:27:53.816Z,15.10
2018-03-21T09:28:53.759Z,11.10
2018-03-21T09:29:53.733Z,11.90
2018-03-21T09:30:53.657Z,12.90
2018-03-21T09:31:53.611Z,12.50
2018-03-21T09:32:53.561Z,12.00
2018-03-21T09:33:53.551Z,12.60
2018-03-21T09:34:53.455Z,13.30
2018-03-21T09:35:53.451Z,15.00
2018-03-21T09:36:53.359Z,11.30
2018-03-21T09:37:53.306Z,11.90
2018-03-21T09:38:53.255Z,13.40
2018-03-21T09:39:53.229Z,12.60
2018-03-21T09:40:53.204Z,10.90
2018-03-21T09:41:53.120Z,11.00
2018-03-21T09:42:53.075Z,15.20
2018-03-21T09:43:53.042Z,14.20
2018-03-21T09:44:52.956Z,13.30
2018-03-21T09:45:52.907Z,13.10
2018-03-21T09:46:52.878Z,11.00
2018-03-21T09:47:52.807Z,11.40
2018-03-21T09:48:52.765Z,10.30
2018-03-21T09:49:52.711Z,10.70
2018-03-21T09:50:52.655Z,10.30
2018-03-21T09:51:52.605Z,10.60
2018-03-21T09:55:59.223Z,11.90
2018-03-21T09:56:56.535Z,11.40
2018-03-21T09:57:56.482Z,11.80
2018-03-21T09:58:56.832Z,11.10
2018-03-21T09:59:56.385Z,11.60
2018-03-21T10:00:56.351Z,11.00
2018-03-21T10:01:56.283Z,10.60
2018-03-21T10:02:56.252Z,10.00
2018-03-21T10:03:56.189Z,11.80
2018-03-21T10:05:17.117Z,13.20
2018-03-21T10:05:56.080Z,10.30
2018-03-21T10:06:56.030Z,11.40
2018-03-21T10:07:55.979Z,10.70
2018-03-21T10:08:55.945Z,10.20
2018-03-21T10:09:55.895Z,10.70
2018-03-21T10:10:55.831Z,11.10
2018-03-21T10:11:55.779Z,10.90
2018-03-21T10:12:55.728Z,10.10
2018-03-21T10:13:55.674Z,12.70
2018-03-21T10:14:55.631Z,10.50
2018-03-21T10:15:55.576Z,10.90
2018-03-21T10:16:55.526Z,11.40
2018-03-21T10:17:55.482Z,10.80
2018-03-21T10:18:55.476Z,10.80
2018-03-21T10:19:55.635Z,10.20
2018-03-21T10:20:55.325Z,10.30
2018-03-21T10:21:55.282Z,11.80
2018-03-21T10:22:55.257Z,9.20
2018-03-21T10:23:55.189Z,9.70
2018-03-21T10:24:55.337Z,9.20
2018-03-21T10:25:55.071Z,9.50
2018-03-21T10:26:55.790Z,9.70
2018-03-21T10:27:55.000Z,13.00
2018-03-21T10:28:54.980Z,9.30
2018-03-21T10:29:55.895Z,9.30
2018-03-21T10:30:55.028Z,9.10
2018-03-21T10:31:54.795Z,7.60
2018-03-21T10:33:09.700Z,7.40
2018-03-21T10:33:54.684Z,10.00
2018-03-21T10:34:54.630Z,9.80
2018-03-21T10:36:15.564Z,10.40
2018-03-21T10:36:54.523Z,10.10
2018-03-21T10:37:54.481Z,11.60
2018-03-21T10:38:54.424Z,10.90
2018-03-21T10:39:54.373Z,10.60
2018-03-21T10:40:54.351Z,8.40
2018-03-21T10:41:54.271Z,8.60
2018-03-21T10:42:54.226Z,9.50
2018-03-21T10:43:54.186Z,9.00
2018-03-21T10:44:54.368Z,10.40
2018-03-21T10:45:54.522Z,9.20
2018-03-21T10:46:54.020Z,11.70
2018-03-21T10:47:54.084Z,9.20
2018-03-21T10:48:54.049Z,9.20
2018-03-21T10:49:53.884Z,7.90
2018-03-21T10:50:53.858Z,8.00
2018-03-21T10:51:53.845Z,8.20
2018-03-21T10:52:53.729Z,11.40
2018-03-21T10:53:53.687Z,6.90
2018-03-21T10:54:53.628Z,6.60
2018-03-21T10:55:53.579Z,10.40
2018-03-21T10:56:53.527Z,9.30
2018-03-21T10:57:53.483Z,7.60
2018-03-21T10:58:53.427Z,7.60
2018-03-21T10:59:53.383Z,8.40
2018-03-21T11:00:53.328Z,9.40
2018-03-21T11:01:53.285Z,7.80
2018-03-21T11:02:53.228Z,8.20
2018-03-21T11:03:53.180Z,7.30
2018-03-21T11:04:53.137Z,7.10
2018-03-21T11:05:53.105Z,7.30
2018-03-21T11:06:53.054Z,7.50
2018-03-21T11:07:53.009Z,5.10
2018-03-21T11:08:52.932Z,6.10
2018-03-21T11:09:52.924Z,5.40
2018-03-21T11:10:52.837Z,5.20
2018-03-21T11:11:52.817Z,5.70
2018-03-21T11:12:52.758Z,6.90
2018-03-21T11:13:52.704Z,8.70
2018-03-21T11:14:52.635Z,6.20
2018-03-21T11:15:52.584Z,7.70
2018-03-21T11:16:52.536Z,6.00
2018-03-21T11:17:52.488Z,5.60
2018-03-21T11:18:52.437Z,7.30
2018-03-21T11:19:52.387Z,5.60
2018-03-21T11:20:52.337Z,6.30
2018-03-21T11:21:52.287Z,7.80
2018-03-21T11:22:52.238Z,4.30
2018-03-21T11:23:52.197Z,4.60
2018-03-21T11:24:52.138Z,5.20
2018-03-21T11:25:52.087Z,6.40
2018-03-21T11:26:52.037Z,5.90
2018-03-21T11:27:51.988Z,6.80
2018-03-21T11:28:51.937Z,6.00
2018-03-21T11:29:52.026Z,6.30
2018-03-21T11:30:51.839Z,6.40
2018-03-21T11:31:51.794Z,6.30
2018-03-21T11:32:51.737Z,4.30
2018-03-21T11:33:51.716Z,4.30
2018-03-21T11:34:52.003Z,6.00
2018-03-21T11:35:51.766Z,5.90
2018-03-21T11:36:51.610Z,6.60
2018-03-21T11:37:51.520Z,6.70
2018-03-21T11:38:51.449Z,5.60
2018-03-21T11:39:51.387Z,5.50
2018-03-21T11:40:51.374Z,7.10
2018-03-21T11:41:51.287Z,5.40
2018-03-21T11:42:51.249Z,5.40
2018-03-21T11:43:51.207Z,5.60
2018-03-21T11:44:51.150Z,5.80
2018-03-21T11:45:51.099Z,5.80
2018-03-21T11:46:51.057Z,5.30
2018-03-21T11:47:50.984Z,7.30
2018-03-21T11:48:50.967Z,6.50
2018-03-21T11:49:50.883Z,5.60
2018-03-21T11:50:50.838Z,6.20
2018-03-21T11:51:50.787Z,7.40
2018-03-21T11:52:50.764Z,6.30
2018-03-21T11:53:50.697Z,5.20
2018-03-21T11:54:50.667Z,5.20
2018-03-21T11:55:50.599Z,6.30
2018-03-21T11:56:50.570Z,4.90
2018-03-21T11:57:51.350Z,5.50
2018-03-21T11:58:50.431Z,5.90
2018-03-21T11:59:50.390Z,5.00
2018-03-21T12:00:50.339Z,5.90
2018-03-21T12:01:50.292Z,7.60
2018-03-21T12:02:50.485Z,5.60
2018-03-21T12:03:50.446Z,4.60
2018-03-21T12:04:50.174Z,3.90
2018-03-21T12:05:50.099Z,3.20
2018-03-21T12:06:50.045Z,6.50
2018-03-21T12:07:49.990Z,5.10
2018-03-21T12:08:49.940Z,8.70
2018-03-21T12:09:49.922Z,6.20
2018-03-21T12:10:51.802Z,2.80
2018-03-21T12:11:49.793Z,2.90
2018-03-21T12:12:49.744Z,3.50
2018-03-21T12:13:49.699Z,4.10
2018-03-21T12:14:49.658Z,3.10
2018-03-21T12:15:49.596Z,3.40
2018-03-21T12:16:49.548Z,3.10
2018-03-21T12:17:52.246Z,4.70
2018-03-21T12:18:49.450Z,4.60
2018-03-21T12:19:49.401Z,3.60
2018-03-21T12:20:50.201Z,3.60
2018-03-21T12:21:52.231Z,4.80
2018-03-21T12:22:49.254Z,3.70
2018-03-21T12:23:49.206Z,4.10
2018-03-21T12:24:49.160Z,4.20
2018-03-21T12:25:49.146Z,6.20
2018-03-21T12:26:49.069Z,4.10
2018-03-21T12:27:49.043Z,4.40
2018-03-21T12:28:55.729Z,6.00
2018-03-21T12:29:48.912Z,4.10
2018-03-21T12:30:48.863Z,6.30
2018-03-21T12:31:49.696Z,6.40
2018-03-21T12:32:48.829Z,6.70
2018-03-21T12:33:48.734Z,5.90
2018-03-21T12:34:48.669Z,6.40
2018-03-21T12:35:48.635Z,8.00
2018-03-21T12:36:48.572Z,7.20
2018-03-21T12:37:55.241Z,6.70
2018-03-21T12:38:48.477Z,8.00
2018-03-21T12:39:48.430Z,5.40
2018-03-21T12:40:49.197Z,5.90
2018-03-21T12:41:48.331Z,5.20
2018-03-21T12:42:48.280Z,7.10
2018-03-21T12:43:48.239Z,7.10
2018-03-21T12:44:54.700Z,6.50
2018-03-21T12:45:48.138Z,8.00
2018-03-21T12:46:48.090Z,8.50
2018-03-21T12:47:48.041Z,6.30
2018-03-21T12:48:54.733Z,7.50
2018-03-21T12:49:47.953Z,5.90
2018-03-21T12:50:47.896Z,5.40
2018-03-21T12:51:47.848Z,6.70
2018-03-21T12:52:47.803Z,8.70
2018-03-21T12:53:47.749Z,6.50
2018-03-21T12:54:47.701Z,7.80
2018-03-21T12:55:47.776Z,8.00
2018-03-21T12:56:47.607Z,7.50
2018-03-21T12:57:47.554Z,6.80
2018-03-21T12:58:47.508Z,6.90
2018-03-21T12:59:47.462Z,6.00